sensor_id;sensor_type;location;lat;lon;timestamp;P1;durP1;ratioP1;P2;durP2;ratioP2
20982;SDS011;10650;51.528;6.748;2022-09-09T00:00:47;2.40;;;1.60;;
20982;SDS011;10650;51.528;6.748;2022-09-09T00:03:22;2.17;;;1.20;;
20982;SDS011;10650;51.528;6.748;2022-09-09T00:05:55;2.58;;;1.30;;
20982;SDS011;10650;51.528;6.748;2022-09-09T00:08:38;3.58;;;1.20;;
20982;SDS011;10650;51.528;6.748;2022-09-09T00:11:13;3.00;;;1.38;;
20982;SDS011;10650;51.528;6.748;2022-09-09T00:13:57;3.50;;;1.38;;
20982;SDS011;10650;51.528;6.748;2022-09-09T00:16:31;2.50;;;1.58;;
20982;SDS011;10650;51.528;6.748;2022-09-09T00:19:04;2.42;;;1.63;;
20982;SDS011;10650;51.528;6.748;2022-09-09T00:21:47;2.03;;;1.35;;
20982;SDS011;10650;51.528;6.748;2022-09-09T00:24:26;5.60;;;2.30;;
20982;SDS011;10650;51.528;6.748;2022-09-09T00:27:00;4.55;;;2.38;;
20982;SDS011;10650;51.528;6.748;2022-09-09T00:32:07;4.50;;;2.80;;
20982;SDS011;10650;51.528;6.748;2022-09-09T00:34:42;3.85;;;3.00;;
20982;SDS011;10650;51.528;6.748;2022-09-09T00:37:14;4.07;;;2.65;;
20982;SDS011;10650;51.528;6.748;2022-09-09T00:39:44;4.82;;;2.40;;
20982;SDS011;10650;51.528;6.748;2022-09-09T00:42:15;3.33;;;2.43;;
20982;SDS011;10650;51.528;6.748;2022-09-09T00:47:48;4.53;;;2.90;;
20982;SDS011;10650;51.528;6.748;2022-09-09T00:50:30;5.47;;;3.20;;
20982;SDS011;10650;51.528;6.748;2022-09-09T00:53:10;5.75;;;3.60;;
20982;SDS011;10650;51.528;6.748;2022-09-09T00:55:52;6.93;;;3.45;;
20982;SDS011;10650;51.528;6.748;2022-09-09T00:58:27;5.38;;;3.10;;
20982;SDS011;10650;51.528;6.748;2022-09-09T01:00:56;4.68;;;2.55;;
20982;SDS011;10650;51.528;6.748;2022-09-09T01:03:36;3.90;;;2.50;;
20982;SDS011;10650;51.528;6.748;2022-09-09T01:06:12;6.72;;;3.60;;
20982;SDS011;10650;51.528;6.748;2022-09-09T01:08:53;7.10;;;4.03;;
20982;SDS011;10650;51.528;6.748;2022-09-09T01:11:33;7.45;;;4.07;;
20982;SDS011;10650;51.528;6.748;2022-09-09T01:14:11;6.43;;;3.50;;
20982;SDS011;10650;51.528;6.748;2022-09-09T01:16:46;6.32;;;3.55;;
20982;SDS011;10650;51.528;6.748;2022-09-09T01:19:17;7.63;;;3.85;;
20982;SDS011;10650;51.528;6.748;2022-09-09T01:21:54;10.85;;;4.43;;
20982;SDS011;10650;51.528;6.748;2022-09-09T01:24:31;8.35;;;4.80;;
20982;SDS011;10650;51.528;6.748;2022-09-09T01:27:07;6.45;;;4.63;;
20982;SDS011;10650;51.528;6.748;2022-09-09T01:29:37;6.78;;;4.60;;
20982;SDS011;10650;51.528;6.748;2022-09-09T01:35:05;9.15;;;4.80;;
20982;SDS011;10650;51.528;6.748;2022-09-09T01:37:38;8.10;;;4.85;;
20982;SDS011;10650;51.528;6.748;2022-09-09T01:40:06;9.15;;;5.07;;
20982;SDS011;10650;51.528;6.748;2022-09-09T01:42:36;4.38;;;3.40;;
20982;SDS011;10650;51.528;6.748;2022-09-09T01:45:04;8.27;;;3.60;;
20982;SDS011;10650;51.528;6.748;2022-09-09T01:47:33;6.15;;;4.13;;
20982;SDS011;10650;51.528;6.748;2022-09-09T01:50:01;6.15;;;4.18;;
20982;SDS011;10650;51.528;6.748;2022-09-09T01:52:30;6.53;;;3.40;;
20982;SDS011;10650;51.528;6.748;2022-09-09T01:54:59;6.97;;;3.50;;
20982;SDS011;10650;51.528;6.748;2022-09-09T01:57:27;5.43;;;4.68;;
20982;SDS011;10650;51.528;6.748;2022-09-09T02:00:03;5.93;;;3.63;;
20982;SDS011;10650;51.528;6.748;2022-09-09T02:02:35;9.32;;;5.30;;
20982;SDS011;10650;51.528;6.748;2022-09-09T02:05:09;7.60;;;5.32;;
20982;SDS011;10650;51.528;6.748;2022-09-09T02:07:51;5.55;;;3.60;;
20982;SDS011;10650;51.528;6.748;2022-09-09T02:10:29;7.18;;;5.38;;
20982;SDS011;10650;51.528;6.748;2022-09-09T02:13:01;9.07;;;4.95;;
20982;SDS011;10650;51.528;6.748;2022-09-09T02:15:34;8.85;;;4.88;;
20982;SDS011;10650;51.528;6.748;2022-09-09T02:18:10;7.60;;;4.55;;
20982;SDS011;10650;51.528;6.748;2022-09-09T02:20:41;9.35;;;5.07;;
20982;SDS011;10650;51.528;6.748;2022-09-09T02:23:11;8.77;;;5.63;;
20982;SDS011;10650;51.528;6.748;2022-09-09T02:25:40;12.23;;;6.50;;
20982;SDS011;10650;51.528;6.748;2022-09-09T02:28:10;9.18;;;6.90;;
20982;SDS011;10650;51.528;6.748;2022-09-09T02:30:42;13.60;;;9.77;;
20982;SDS011;10650;51.528;6.748;2022-09-09T02:33:13;11.60;;;6.88;;
20982;SDS011;10650;51.528;6.748;2022-09-09T02:35:41;11.85;;;6.53;;
20982;SDS011;10650;51.528;6.748;2022-09-09T02:38:12;9.23;;;4.72;;
20982;SDS011;10650;51.528;6.748;2022-09-09T02:40:42;8.57;;;5.10;;
20982;SDS011;10650;51.528;6.748;2022-09-09T02:43:10;10.32;;;6.05;;
20982;SDS011;10650;51.528;6.748;2022-09-09T02:45:40;13.85;;;6.32;;
20982;SDS011;10650;51.528;6.748;2022-09-09T02:48:17;11.05;;;6.03;;
20982;SDS011;10650;51.528;6.748;2022-09-09T02:50:54;10.98;;;6.03;;
20982;SDS011;10650;51.528;6.748;2022-09-09T02:53:29;13.20;;;6.20;;
20982;SDS011;10650;51.528;6.748;2022-09-09T02:56:03;11.05;;;5.55;;
20982;SDS011;10650;51.528;6.748;2022-09-09T02:58:36;10.27;;;4.85;;
20982;SDS011;10650;51.528;6.748;2022-09-09T03:01:06;10.02;;;5.32;;
20982;SDS011;10650;51.528;6.748;2022-09-09T03:03:35;8.40;;;4.32;;
20982;SDS011;10650;51.528;6.748;2022-09-09T03:06:02;7.68;;;4.20;;
20982;SDS011;10650;51.528;6.748;2022-09-09T03:08:31;22.65;;;11.82;;
20982;SDS011;10650;51.528;6.748;2022-09-09T03:10:59;9.43;;;5.03;;
20982;SDS011;10650;51.528;6.748;2022-09-09T03:13:28;11.07;;;4.95;;
20982;SDS011;10650;51.528;6.748;2022-09-09T03:15:56;7.70;;;5.10;;
20982;SDS011;10650;51.528;6.748;2022-09-09T03:18:25;13.02;;;6.10;;
20982;SDS011;10650;51.528;6.748;2022-09-09T03:20:54;12.60;;;6.47;;
20982;SDS011;10650;51.528;6.748;2022-09-09T03:23:21;10.68;;;5.43;;
20982;SDS011;10650;51.528;6.748;2022-09-09T03:25:49;9.60;;;5.40;;
20982;SDS011;10650;51.528;6.748;2022-09-09T03:28:18;8.90;;;5.38;;
20982;SDS011;10650;51.528;6.748;2022-09-09T03:30:46;8.98;;;5.38;;
20982;SDS011;10650;51.528;6.748;2022-09-09T03:33:15;10.75;;;4.90;;
20982;SDS011;10650;51.528;6.748;2022-09-09T03:35:46;7.25;;;4.05;;
20982;SDS011;10650;51.528;6.748;2022-09-09T03:38:14;6.88;;;3.42;;
20982;SDS011;10650;51.528;6.748;2022-09-09T03:40:48;8.15;;;4.20;;
20982;SDS011;10650;51.528;6.748;2022-09-09T03:43:16;9.45;;;5.10;;
20982;SDS011;10650;51.528;6.748;2022-09-09T03:45:45;11.45;;;5.00;;
20982;SDS011;10650;51.528;6.748;2022-09-09T03:48:13;10.85;;;5.32;;
20982;SDS011;10650;51.528;6.748;2022-09-09T03:50:43;10.50;;;5.20;;
20982;SDS011;10650;51.528;6.748;2022-09-09T03:53:13;10.55;;;5.35;;
20982;SDS011;10650;51.528;6.748;2022-09-09T03:55:43;14.48;;;6.95;;
20982;SDS011;10650;51.528;6.748;2022-09-09T03:58:11;15.50;;;6.93;;
20982;SDS011;10650;51.528;6.748;2022-09-09T04:00:40;13.27;;;6.15;;
20982;SDS011;10650;51.528;6.748;2022-09-09T04:03:11;10.55;;;4.82;;
20982;SDS011;10650;51.528;6.748;2022-09-09T04:05:39;10.88;;;5.10;;
20982;SDS011;10650;51.528;6.748;2022-09-09T04:08:09;12.07;;;6.18;;
20982;SDS011;10650;51.528;6.748;2022-09-09T04:10:37;14.70;;;6.38;;
20982;SDS011;10650;51.528;6.748;2022-09-09T04:13:05;15.35;;;7.18;;
20982;SDS011;10650;51.528;6.748;2022-09-09T04:15:32;12.48;;;6.40;;
20982;SDS011;10650;51.528;6.748;2022-09-09T04:18:01;14.55;;;6.57;;
20982;SDS011;10650;51.528;6.748;2022-09-09T04:20:29;13.70;;;6.40;;
20982;SDS011;10650;51.528;6.748;2022-09-09T04:22:56;16.67;;;6.35;;
20982;SDS011;10650;51.528;6.748;2022-09-09T04:25:25;14.25;;;5.80;;
20982;SDS011;10650;51.528;6.748;2022-09-09T04:27:53;13.55;;;6.57;;
20982;SDS011;10650;51.528;6.748;2022-09-09T04:30:21;12.30;;;6.97;;
20982;SDS011;10650;51.528;6.748;2022-09-09T04:32:49;12.73;;;5.50;;
20982;SDS011;10650;51.528;6.748;2022-09-09T04:35:16;12.30;;;5.15;;
20982;SDS011;10650;51.528;6.748;2022-09-09T04:37:46;17.08;;;5.00;;
20982;SDS011;10650;51.528;6.748;2022-09-09T04:40:14;14.30;;;4.78;;
20982;SDS011;10650;51.528;6.748;2022-09-09T04:42:43;14.85;;;4.93;;
20982;SDS011;10650;51.528;6.748;2022-09-09T04:45:10;8.63;;;3.90;;
20982;SDS011;10650;51.528;6.748;2022-09-09T04:47:39;15.50;;;5.22;;
20982;SDS011;10650;51.528;6.748;2022-09-09T04:50:08;14.60;;;5.80;;
20982;SDS011;10650;51.528;6.748;2022-09-09T04:52:36;20.02;;;5.75;;
20982;SDS011;10650;51.528;6.748;2022-09-09T04:55:03;16.13;;;5.57;;
20982;SDS011;10650;51.528;6.748;2022-09-09T04:57:32;11.32;;;5.07;;
20982;SDS011;10650;51.528;6.748;2022-09-09T05:00:01;14.30;;;5.88;;
20982;SDS011;10650;51.528;6.748;2022-09-09T05:02:30;14.98;;;5.63;;
20982;SDS011;10650;51.528;6.748;2022-09-09T05:04:58;14.43;;;5.70;;
20982;SDS011;10650;51.528;6.748;2022-09-09T05:07:26;14.80;;;5.65;;
20982;SDS011;10650;51.528;6.748;2022-09-09T05:09:55;16.75;;;6.38;;
20982;SDS011;10650;51.528;6.748;2022-09-09T05:12:22;16.85;;;6.28;;
20982;SDS011;10650;51.528;6.748;2022-09-09T05:14:51;14.27;;;4.63;;
20982;SDS011;10650;51.528;6.748;2022-09-09T05:17:20;13.15;;;5.40;;
20982;SDS011;10650;51.528;6.748;2022-09-09T05:19:48;14.32;;;5.50;;
20982;SDS011;10650;51.528;6.748;2022-09-09T05:22:18;15.32;;;5.85;;
20982;SDS011;10650;51.528;6.748;2022-09-09T05:24:49;18.00;;;5.10;;
20982;SDS011;10650;51.528;6.748;2022-09-09T05:27:18;13.18;;;4.90;;
20982;SDS011;10650;51.528;6.748;2022-09-09T05:29:46;9.85;;;4.40;;
20982;SDS011;10650;51.528;6.748;2022-09-09T05:32:14;18.65;;;5.00;;
20982;SDS011;10650;51.528;6.748;2022-09-09T05:34:44;19.58;;;8.98;;
20982;SDS011;10650;51.528;6.748;2022-09-09T05:37:12;11.73;;;6.18;;
20982;SDS011;10650;51.528;6.748;2022-09-09T05:39:40;15.73;;;6.20;;
20982;SDS011;10650;51.528;6.748;2022-09-09T05:42:08;11.60;;;4.07;;
20982;SDS011;10650;51.528;6.748;2022-09-09T05:44:35;11.80;;;4.30;;
20982;SDS011;10650;51.528;6.748;2022-09-09T05:47:03;13.45;;;4.78;;
20982;SDS011;10650;51.528;6.748;2022-09-09T05:49:31;15.75;;;5.18;;
20982;SDS011;10650;51.528;6.748;2022-09-09T05:52:00;18.08;;;5.93;;
20982;SDS011;10650;51.528;6.748;2022-09-09T05:54:30;12.45;;;5.28;;
20982;SDS011;10650;51.528;6.748;2022-09-09T05:56:58;17.10;;;5.35;;
20982;SDS011;10650;51.528;6.748;2022-09-09T05:59:26;16.35;;;5.22;;
20982;SDS011;10650;51.528;6.748;2022-09-09T06:01:54;13.50;;;5.22;;
20982;SDS011;10650;51.528;6.748;2022-09-09T06:04:22;11.90;;;5.25;;
20982;SDS011;10650;51.528;6.748;2022-09-09T06:06:50;13.70;;;5.20;;
20982;SDS011;10650;51.528;6.748;2022-09-09T06:09:19;14.73;;;5.95;;
20982;SDS011;10650;51.528;6.748;2022-09-09T06:11:47;15.68;;;5.75;;
20982;SDS011;10650;51.528;6.748;2022-09-09T06:14:14;16.90;;;7.82;;
20982;SDS011;10650;51.528;6.748;2022-09-09T06:16:44;15.30;;;6.35;;
20982;SDS011;10650;51.528;6.748;2022-09-09T06:19:12;13.20;;;5.97;;
20982;SDS011;10650;51.528;6.748;2022-09-09T06:21:40;16.90;;;6.90;;
20982;SDS011;10650;51.528;6.748;2022-09-09T06:24:08;15.70;;;5.93;;
20982;SDS011;10650;51.528;6.748;2022-09-09T06:26:38;16.17;;;5.72;;
20982;SDS011;10650;51.528;6.748;2022-09-09T06:29:07;17.02;;;5.97;;
20982;SDS011;10650;51.528;6.748;2022-09-09T06:31:35;11.02;;;4.78;;
20982;SDS011;10650;51.528;6.748;2022-09-09T06:34:04;15.00;;;5.32;;
20982;SDS011;10650;51.528;6.748;2022-09-09T06:36:34;16.90;;;5.18;;
20982;SDS011;10650;51.528;6.748;2022-09-09T06:39:03;17.20;;;6.13;;
20982;SDS011;10650;51.528;6.748;2022-09-09T06:41:31;16.35;;;4.43;;
20982;SDS011;10650;51.528;6.748;2022-09-09T06:44:01;16.27;;;5.38;;
20982;SDS011;10650;51.528;6.748;2022-09-09T06:46:30;14.88;;;5.85;;
20982;SDS011;10650;51.528;6.748;2022-09-09T06:49:01;18.48;;;6.85;;
20982;SDS011;10650;51.528;6.748;2022-09-09T06:51:30;15.43;;;5.53;;
20982;SDS011;10650;51.528;6.748;2022-09-09T06:53:59;16.42;;;5.07;;
20982;SDS011;10650;51.528;6.748;2022-09-09T06:56:28;18.73;;;5.38;;
20982;SDS011;10650;51.528;6.748;2022-09-09T06:58:59;15.25;;;4.38;;
20982;SDS011;10650;51.528;6.748;2022-09-09T07:01:31;15.93;;;4.53;;
20982;SDS011;10650;51.528;6.748;2022-09-09T07:04:01;11.82;;;3.92;;
20982;SDS011;10650;51.528;6.748;2022-09-09T07:09:02;12.30;;;4.25;;
20982;SDS011;10650;51.528;6.748;2022-09-09T07:11:31;12.85;;;4.20;;
20982;SDS011;10650;51.528;6.748;2022-09-09T07:14:02;12.00;;;4.47;;
20982;SDS011;10650;51.528;6.748;2022-09-09T07:16:29;13.38;;;4.50;;
20982;SDS011;10650;51.528;6.748;2022-09-09T07:18:59;10.48;;;4.10;;
20982;SDS011;10650;51.528;6.748;2022-09-09T07:21:29;14.68;;;5.20;;
20982;SDS011;10650;51.528;6.748;2022-09-09T07:23:58;15.95;;;5.22;;
20982;SDS011;10650;51.528;6.748;2022-09-09T07:26:27;12.02;;;4.07;;
20982;SDS011;10650;51.528;6.748;2022-09-09T07:28:56;11.23;;;3.75;;
20982;SDS011;10650;51.528;6.748;2022-09-09T07:31:26;11.63;;;3.35;;
20982;SDS011;10650;51.528;6.748;2022-09-09T07:33:56;12.70;;;3.15;;
20982;SDS011;10650;51.528;6.748;2022-09-09T07:36:27;8.20;;;3.17;;
20982;SDS011;10650;51.528;6.748;2022-09-09T07:38:59;9.52;;;4.00;;
20982;SDS011;10650;51.528;6.748;2022-09-09T07:41:29;10.95;;;3.60;;
20982;SDS011;10650;51.528;6.748;2022-09-09T07:44:03;10.90;;;2.93;;
20982;SDS011;10650;51.528;6.748;2022-09-09T07:46:33;10.27;;;3.22;;
20982;SDS011;10650;51.528;6.748;2022-09-09T07:49:02;10.52;;;4.18;;
20982;SDS011;10650;51.528;6.748;2022-09-09T07:51:31;7.63;;;3.45;;
20982;SDS011;10650;51.528;6.748;2022-09-09T07:54:01;12.35;;;3.15;;
20982;SDS011;10650;51.528;6.748;2022-09-09T07:56:30;11.13;;;3.38;;
20982;SDS011;10650;51.528;6.748;2022-09-09T07:58:59;7.32;;;2.78;;
20982;SDS011;10650;51.528;6.748;2022-09-09T08:01:27;11.77;;;3.20;;
20982;SDS011;10650;51.528;6.748;2022-09-09T08:03:59;8.82;;;2.83;;
20982;SDS011;10650;51.528;6.748;2022-09-09T08:06:29;12.52;;;3.20;;
20982;SDS011;10650;51.528;6.748;2022-09-09T08:08:59;6.88;;;2.55;;
20982;SDS011;10650;51.528;6.748;2022-09-09T08:11:28;7.43;;;2.40;;
20982;SDS011;10650;51.528;6.748;2022-09-09T08:14:03;6.97;;;2.30;;
20982;SDS011;10650;51.528;6.748;2022-09-09T08:16:32;7.22;;;2.17;;
20982;SDS011;10650;51.528;6.748;2022-09-09T08:19:04;4.75;;;2.17;;
20982;SDS011;10650;51.528;6.748;2022-09-09T08:21:33;6.47;;;2.50;;
20982;SDS011;10650;51.528;6.748;2022-09-09T08:24:03;10.07;;;2.90;;
20982;SDS011;10650;51.528;6.748;2022-09-09T08:26:32;6.90;;;2.72;;
20982;SDS011;10650;51.528;6.748;2022-09-09T08:29:02;7.97;;;2.45;;
20982;SDS011;10650;51.528;6.748;2022-09-09T08:31:32;8.65;;;2.90;;
20982;SDS011;10650;51.528;6.748;2022-09-09T08:34:01;8.50;;;2.97;;
20982;SDS011;10650;51.528;6.748;2022-09-09T08:36:31;8.73;;;2.72;;
20982;SDS011;10650;51.528;6.748;2022-09-09T08:39:00;10.73;;;3.17;;
20982;SDS011;10650;51.528;6.748;2022-09-09T08:41:33;11.57;;;3.45;;
20982;SDS011;10650;51.528;6.748;2022-09-09T08:44:07;10.38;;;3.40;;
20982;SDS011;10650;51.528;6.748;2022-09-09T08:46:43;9.88;;;3.10;;
20982;SDS011;10650;51.528;6.748;2022-09-09T08:49:22;9.40;;;3.50;;
20982;SDS011;10650;51.528;6.748;2022-09-09T08:52:08;7.97;;;2.45;;
20982;SDS011;10650;51.528;6.748;2022-09-09T08:54:42;7.20;;;2.30;;
20982;SDS011;10650;51.528;6.748;2022-09-09T08:57:18;6.30;;;2.28;;
20982;SDS011;10650;51.528;6.748;2022-09-09T08:59:52;8.68;;;3.13;;
20982;SDS011;10650;51.528;6.748;2022-09-09T09:02:24;7.40;;;2.53;;
20982;SDS011;10650;51.528;6.748;2022-09-09T09:04:58;8.77;;;2.65;;
20982;SDS011;10650;51.528;6.748;2022-09-09T09:07:41;8.48;;;2.80;;
20982;SDS011;10650;51.528;6.748;2022-09-09T09:10:21;7.40;;;2.67;;
20982;SDS011;10650;51.528;6.748;2022-09-09T09:13:08;8.77;;;2.65;;
20982;SDS011;10650;51.528;6.748;2022-09-09T09:15:41;15.45;;;3.72;;
20982;SDS011;10650;51.528;6.748;2022-09-09T09:18:19;11.88;;;3.40;;
20982;SDS011;10650;51.528;6.748;2022-09-09T09:20:50;12.88;;;3.47;;
20982;SDS011;10650;51.528;6.748;2022-09-09T09:23:23;8.05;;;3.20;;
20982;SDS011;10650;51.528;6.748;2022-09-09T09:25:54;8.13;;;2.97;;
20982;SDS011;10650;51.528;6.748;2022-09-09T09:28:27;14.30;;;4.28;;
20982;SDS011;10650;51.528;6.748;2022-09-09T09:30:57;11.43;;;4.68;;
20982;SDS011;10650;51.528;6.748;2022-09-09T09:33:30;10.30;;;3.20;;
20982;SDS011;10650;51.528;6.748;2022-09-09T09:36:02;8.43;;;2.63;;
20982;SDS011;10650;51.528;6.748;2022-09-09T09:38:34;10.07;;;2.72;;
20982;SDS011;10650;51.528;6.748;2022-09-09T09:41:29;8.30;;;2.47;;
20982;SDS011;10650;51.528;6.748;2022-09-09T09:43:59;10.45;;;2.40;;
20982;SDS011;10650;51.528;6.748;2022-09-09T09:46:28;7.68;;;2.72;;
20982;SDS011;10650;51.528;6.748;2022-09-09T09:48:56;7.15;;;2.67;;
20982;SDS011;10650;51.528;6.748;2022-09-09T09:51:25;8.50;;;2.80;;
20982;SDS011;10650;51.528;6.748;2022-09-09T09:54:03;6.72;;;2.70;;
20982;SDS011;10650;51.528;6.748;2022-09-09T09:56:41;6.53;;;2.63;;
20982;SDS011;10650;51.528;6.748;2022-09-09T09:59:19;6.55;;;2.42;;
20982;SDS011;10650;51.528;6.748;2022-09-09T10:02:13;6.15;;;2.10;;
20982;SDS011;10650;51.528;6.748;2022-09-09T10:04:43;8.20;;;2.22;;
20982;SDS011;10650;51.528;6.748;2022-09-09T10:07:11;8.13;;;4.82;;
20982;SDS011;10650;51.528;6.748;2022-09-09T10:09:41;5.97;;;2.10;;
20982;SDS011;10650;51.528;6.748;2022-09-09T10:12:12;4.25;;;2.03;;
20982;SDS011;10650;51.528;6.748;2022-09-09T10:14:50;4.57;;;2.20;;
20982;SDS011;10650;51.528;6.748;2022-09-09T10:17:26;6.93;;;2.35;;
20982;SDS011;10650;51.528;6.748;2022-09-09T10:20:13;5.53;;;2.30;;
20982;SDS011;10650;51.528;6.748;2022-09-09T10:22:50;5.38;;;1.80;;
20982;SDS011;10650;51.528;6.748;2022-09-09T10:25:33;6.55;;;2.67;;
20982;SDS011;10650;51.528;6.748;2022-09-09T10:31:11;5.40;;;2.28;;
20982;SDS011;10650;51.528;6.748;2022-09-09T10:33:48;8.95;;;2.20;;
20982;SDS011;10650;51.528;6.748;2022-09-09T10:36:19;7.00;;;2.20;;
20982;SDS011;10650;51.528;6.748;2022-09-09T10:38:51;5.97;;;2.33;;
20982;SDS011;10650;51.528;6.748;2022-09-09T10:41:30;8.10;;;2.30;;
20982;SDS011;10650;51.528;6.748;2022-09-09T10:44:13;7.15;;;1.98;;
20982;SDS011;10650;51.528;6.748;2022-09-09T10:49:39;6.47;;;2.15;;
20982;SDS011;10650;51.528;6.748;2022-09-09T10:52:17;4.97;;;2.50;;
20982;SDS011;10650;51.528;6.748;2022-09-09T10:54:52;7.60;;;2.88;;
20982;SDS011;10650;51.528;6.748;2022-09-09T10:57:27;6.70;;;2.85;;
20982;SDS011;10650;51.528;6.748;2022-09-09T10:59:59;10.93;;;4.10;;
20982;SDS011;10650;51.528;6.748;2022-09-09T11:02:32;11.10;;;2.53;;
20982;SDS011;10650;51.528;6.748;2022-09-09T11:05:02;9.20;;;3.75;;
20982;SDS011;10650;51.528;6.748;2022-09-09T11:07:35;21.10;;;3.90;;
20982;SDS011;10650;51.528;6.748;2022-09-09T11:10:15;9.35;;;2.90;;
20982;SDS011;10650;51.528;6.748;2022-09-09T11:12:52;8.45;;;3.15;;
20982;SDS011;10650;51.528;6.748;2022-09-09T11:15:25;6.65;;;2.38;;
20982;SDS011;10650;51.528;6.748;2022-09-09T11:17:58;7.97;;;3.08;;
20982;SDS011;10650;51.528;6.748;2022-09-09T11:20:29;6.82;;;2.90;;
20982;SDS011;10650;51.528;6.748;2022-09-09T11:22:59;11.68;;;2.92;;
20982;SDS011;10650;51.528;6.748;2022-09-09T11:25:31;11.70;;;3.10;;
20982;SDS011;10650;51.528;6.748;2022-09-09T11:28:11;8.35;;;2.83;;
20982;SDS011;10650;51.528;6.748;2022-09-09T11:30:54;7.25;;;2.10;;
20982;SDS011;10650;51.528;6.748;2022-09-09T11:33:42;6.22;;;2.60;;
20982;SDS011;10650;51.528;6.748;2022-09-09T11:39:32;8.05;;;2.38;;
20982;SDS011;10650;51.528;6.748;2022-09-09T11:42:15;6.00;;;2.10;;
20982;SDS011;10650;51.528;6.748;2022-09-09T11:44:46;5.45;;;2.25;;
20982;SDS011;10650;51.528;6.748;2022-09-09T11:47:21;6.82;;;2.70;;
20982;SDS011;10650;51.528;6.748;2022-09-09T11:49:55;5.93;;;2.37;;
20982;SDS011;10650;51.528;6.748;2022-09-09T11:52:36;7.28;;;2.53;;
20982;SDS011;10650;51.528;6.748;2022-09-09T11:55:08;8.63;;;3.25;;
20982;SDS011;10650;51.528;6.748;2022-09-09T11:57:38;10.85;;;3.30;;
20982;SDS011;10650;51.528;6.748;2022-09-09T12:02:59;14.48;;;2.63;;
20982;SDS011;10650;51.528;6.748;2022-09-09T12:05:35;10.60;;;2.78;;
20982;SDS011;10650;51.528;6.748;2022-09-09T12:08:05;28.30;;;5.28;;
20982;SDS011;10650;51.528;6.748;2022-09-09T12:10:34;8.57;;;2.25;;
20982;SDS011;10650;51.528;6.748;2022-09-09T12:13:15;5.70;;;1.90;;
20982;SDS011;10650;51.528;6.748;2022-09-09T12:15:48;6.18;;;1.80;;
20982;SDS011;10650;51.528;6.748;2022-09-09T12:18:21;4.93;;;1.58;;
20982;SDS011;10650;51.528;6.748;2022-09-09T12:20:52;5.07;;;1.80;;
20982;SDS011;10650;51.528;6.748;2022-09-09T12:23:27;7.22;;;1.90;;
20982;SDS011;10650;51.528;6.748;2022-09-09T12:26:07;4.43;;;1.85;;
20982;SDS011;10650;51.528;6.748;2022-09-09T12:28:53;7.00;;;2.00;;
20982;SDS011;10650;51.528;6.748;2022-09-09T12:31:28;3.05;;;1.80;;
20982;SDS011;10650;51.528;6.748;2022-09-09T12:34:04;4.05;;;1.60;;
20982;SDS011;10650;51.528;6.748;2022-09-09T12:36:37;5.60;;;2.10;;
20982;SDS011;10650;51.528;6.748;2022-09-09T12:39:10;6.43;;;1.70;;
20982;SDS011;10650;51.528;6.748;2022-09-09T12:41:50;4.22;;;1.60;;
20982;SDS011;10650;51.528;6.748;2022-09-09T12:44:23;2.40;;;1.20;;
20982;SDS011;10650;51.528;6.748;2022-09-09T12:46:53;2.92;;;1.20;;
20982;SDS011;10650;51.528;6.748;2022-09-09T12:49:27;3.67;;;1.33;;
20982;SDS011;10650;51.528;6.748;2022-09-09T12:52:01;4.57;;;1.38;;
20982;SDS011;10650;51.528;6.748;2022-09-09T12:54:32;2.30;;;1.50;;
20982;SDS011;10650;51.528;6.748;2022-09-09T12:57:00;3.10;;;1.20;;
20982;SDS011;10650;51.528;6.748;2022-09-09T12:59:34;3.67;;;1.38;;
20982;SDS011;10650;51.528;6.748;2022-09-09T13:02:11;4.15;;;1.40;;
20982;SDS011;10650;51.528;6.748;2022-09-09T13:04:46;2.50;;;1.40;;
20982;SDS011;10650;51.528;6.748;2022-09-09T13:07:14;5.32;;;1.58;;
20982;SDS011;10650;51.528;6.748;2022-09-09T13:09:42;4.35;;;1.50;;
20982;SDS011;10650;51.528;6.748;2022-09-09T13:12:13;2.92;;;1.35;;
20982;SDS011;10650;51.528;6.748;2022-09-09T13:14:43;4.90;;;2.10;;
20982;SDS011;10650;51.528;6.748;2022-09-09T13:17:19;6.78;;;3.03;;
20982;SDS011;10650;51.528;6.748;2022-09-09T13:19:49;7.72;;;2.35;;
20982;SDS011;10650;51.528;6.748;2022-09-09T13:22:24;9.27;;;3.50;;
20982;SDS011;10650;51.528;6.748;2022-09-09T13:24:59;6.60;;;2.60;;
20982;SDS011;10650;51.528;6.748;2022-09-09T13:27:30;8.43;;;2.72;;
20982;SDS011;10650;51.528;6.748;2022-09-09T13:30:00;6.43;;;2.83;;
20982;SDS011;10650;51.528;6.748;2022-09-09T13:32:29;12.05;;;3.78;;
20982;SDS011;10650;51.528;6.748;2022-09-09T13:34:58;27.27;;;12.30;;
20982;SDS011;10650;51.528;6.748;2022-09-09T13:37:28;10.18;;;3.90;;
20982;SDS011;10650;51.528;6.748;2022-09-09T13:40:01;8.80;;;3.40;;
20982;SDS011;10650;51.528;6.748;2022-09-09T13:42:32;8.13;;;3.17;;
20982;SDS011;10650;51.528;6.748;2022-09-09T13:45:04;8.90;;;3.53;;
20982;SDS011;10650;51.528;6.748;2022-09-09T13:47:34;6.13;;;2.70;;
20982;SDS011;10650;51.528;6.748;2022-09-09T13:50:10;5.65;;;2.28;;
20982;SDS011;10650;51.528;6.748;2022-09-09T13:52:46;7.40;;;2.92;;
20982;SDS011;10650;51.528;6.748;2022-09-09T13:55:15;3.50;;;1.98;;
20982;SDS011;10650;51.528;6.748;2022-09-09T13:57:49;7.43;;;2.50;;
20982;SDS011;10650;51.528;6.748;2022-09-09T14:00:18;3.75;;;2.00;;
20982;SDS011;10650;51.528;6.748;2022-09-09T14:02:48;3.65;;;1.50;;
20982;SDS011;10650;51.528;6.748;2022-09-09T14:05:16;3.63;;;1.65;;
20982;SDS011;10650;51.528;6.748;2022-09-09T14:07:45;3.95;;;1.42;;
20982;SDS011;10650;51.528;6.748;2022-09-09T14:10:18;4.32;;;1.70;;
20982;SDS011;10650;51.528;6.748;2022-09-09T14:12:46;2.58;;;1.65;;
20982;SDS011;10650;51.528;6.748;2022-09-09T14:15:14;5.20;;;2.70;;
20982;SDS011;10650;51.528;6.748;2022-09-09T14:17:42;2.63;;;1.52;;
20982;SDS011;10650;51.528;6.748;2022-09-09T14:20:11;5.07;;;1.73;;
20982;SDS011;10650;51.528;6.748;2022-09-09T14:22:41;3.65;;;1.60;;
20982;SDS011;10650;51.528;6.748;2022-09-09T14:25:10;4.18;;;1.83;;
20982;SDS011;10650;51.528;6.748;2022-09-09T14:27:39;7.75;;;2.05;;
20982;SDS011;10650;51.528;6.748;2022-09-09T14:30:08;4.22;;;1.95;;
20982;SDS011;10650;51.528;6.748;2022-09-09T14:32:37;3.33;;;1.67;;
20982;SDS011;10650;51.528;6.748;2022-09-09T14:35:05;8.43;;;3.75;;
20982;SDS011;10650;51.528;6.748;2022-09-09T14:37:34;2.20;;;1.20;;
20982;SDS011;10650;51.528;6.748;2022-09-09T14:40:02;2.45;;;1.02;;
20982;SDS011;10650;51.528;6.748;2022-09-09T14:42:30;7.45;;;2.10;;
20982;SDS011;10650;51.528;6.748;2022-09-09T14:44:58;9.57;;;2.75;;
20982;SDS011;10650;51.528;6.748;2022-09-09T14:47:25;11.70;;;2.60;;
20982;SDS011;10650;51.528;6.748;2022-09-09T14:49:53;5.75;;;2.10;;
20982;SDS011;10650;51.528;6.748;2022-09-09T14:52:21;4.97;;;2.03;;
20982;SDS011;10650;51.528;6.748;2022-09-09T14:54:50;5.63;;;1.75;;
20982;SDS011;10650;51.528;6.748;2022-09-09T14:57:17;5.07;;;1.33;;
20982;SDS011;10650;51.528;6.748;2022-09-09T14:59:45;6.40;;;1.60;;
20982;SDS011;10650;51.528;6.748;2022-09-09T15:02:13;4.82;;;1.80;;
20982;SDS011;10650;51.528;6.748;2022-09-09T15:04:41;3.20;;;1.35;;
20982;SDS011;10650;51.528;6.748;2022-09-09T15:07:08;5.57;;;1.55;;
20982;SDS011;10650;51.528;6.748;2022-09-09T15:09:37;5.95;;;1.50;;
20982;SDS011;10650;51.528;6.748;2022-09-09T15:12:06;3.38;;;1.50;;
20982;SDS011;10650;51.528;6.748;2022-09-09T15:14:35;3.13;;;1.50;;
20982;SDS011;10650;51.528;6.748;2022-09-09T15:17:03;3.63;;;2.00;;
20982;SDS011;10650;51.528;6.748;2022-09-09T15:19:30;4.77;;;1.83;;
20982;SDS011;10650;51.528;6.748;2022-09-09T15:21:58;5.40;;;2.55;;
20982;SDS011;10650;51.528;6.748;2022-09-09T15:24:26;6.20;;;3.50;;
20982;SDS011;10650;51.528;6.748;2022-09-09T15:26:54;9.23;;;4.80;;
20982;SDS011;10650;51.528;6.748;2022-09-09T15:29:24;10.45;;;5.22;;
20982;SDS011;10650;51.528;6.748;2022-09-09T15:31:52;11.75;;;6.55;;